AVA55W MGGT-MHTG
Flight info
| Callsign | AVA55W |
|---|---|
| Flight time | 0h 49m |
| Altitude | 30000 |
| Route | PALEN DCT LAGOX UA552 NAGEL DCT VITAN VITAN1A |
| Aircraft | A320/M-SDE3FGHIRWY/LB1 |
Departure
| Time | 2026-04-17 03:16 |
|---|---|
| Airport | La Aurora International Airport (MGGT) |
Arrival
| Time | 2026-04-17 04:06 |
|---|---|
| Airport | Toncontín Airport (MHTG) |
| Time | Latitude | Longitude | Altitude | Speed | Heading |
|---|---|---|---|---|---|
| 2026-04-17 02:59 | 14.59048 | -90.52840 | 4951 ft | 0 kts | 287° |
| 2026-04-17 03:03 | 14.59043 | -90.52825 | 4948 ft | 4 kts | 288° |
| 2026-04-17 03:04 | 14.59035 | -90.52799 | 4972 ft | 4 kts | 288° |
| 2026-04-17 03:04 | 14.59027 | -90.52772 | 4972 ft | 4 kts | 281° |
| 2026-04-17 03:04 | 14.59025 | -90.52747 | 4972 ft | 4 kts | 243° |
| 2026-04-17 03:04 | 14.59032 | -90.52738 | 4973 ft | 1 kts | 197° |
| 2026-04-17 03:07 | 14.59029 | -90.52739 | 4973 ft | 1 kts | 197° |
| 2026-04-17 03:07 | 14.59023 | -90.52741 | 4972 ft | 1 kts | 197° |
| 2026-04-17 03:07 | 14.59017 | -90.52743 | 4973 ft | 1 kts | 197° |
| 2026-04-17 03:07 | 14.58999 | -90.52749 | 4973 ft | 9 kts | 197° |
| 2026-04-17 03:08 | 14.58747 | -90.52831 | 4973 ft | 33 kts | 197° |
| 2026-04-17 03:08 | 14.58694 | -90.52797 | 4971 ft | 9 kts | 97° |
| 2026-04-17 03:08 | 14.58679 | -90.52723 | 4969 ft | 12 kts | 133° |
| 2026-04-17 03:08 | 14.58596 | -90.52732 | 4967 ft | 13 kts | 198° |
| 2026-04-17 03:09 | 14.58510 | -90.52760 | 4962 ft | 13 kts | 197° |
| 2026-04-17 03:09 | 14.58429 | -90.52786 | 4962 ft | 11 kts | 197° |
| 2026-04-17 03:09 | 14.58359 | -90.52809 | 4962 ft | 10 kts | 197° |
| 2026-04-17 03:09 | 14.58292 | -90.52831 | 4962 ft | 10 kts | 197° |
| 2026-04-17 03:10 | 14.58220 | -90.52854 | 4955 ft | 11 kts | 197° |
| 2026-04-17 03:10 | 14.58146 | -90.52878 | 4953 ft | 11 kts | 197° |
| 2026-04-17 03:10 | 14.58073 | -90.52902 | 4953 ft | 11 kts | 197° |
| 2026-04-17 03:10 | 14.57998 | -90.52926 | 4942 ft | 12 kts | 197° |
| 2026-04-17 03:11 | 14.57916 | -90.52952 | 4944 ft | 14 kts | 197° |
| 2026-04-17 03:11 | 14.57818 | -90.52984 | 4939 ft | 16 kts | 197° |
| 2026-04-17 03:11 | 14.57713 | -90.53018 | 4936 ft | 16 kts | 197° |
| 2026-04-17 03:11 | 14.57610 | -90.53051 | 4934 ft | 16 kts | 198° |
| 2026-04-17 03:12 | 14.57504 | -90.53085 | 4926 ft | 16 kts | 197° |
| 2026-04-17 03:12 | 14.57397 | -90.53121 | 4921 ft | 16 kts | 198° |
| 2026-04-17 03:12 | 14.57298 | -90.53152 | 4921 ft | 14 kts | 197° |
| 2026-04-17 03:12 | 14.57207 | -90.53181 | 4923 ft | 13 kts | 197° |
| 2026-04-17 03:13 | 14.57122 | -90.53209 | 4922 ft | 11 kts | 197° |
| 2026-04-17 03:13 | 14.57091 | -90.53212 | 4922 ft | 0 kts | 159° |
| 2026-04-17 03:14 | 14.57084 | -90.53206 | 4922 ft | 5 kts | 146° |
| 2026-04-17 03:14 | 14.57067 | -90.53177 | 4921 ft | 4 kts | 104° |
| 2026-04-17 03:14 | 14.57075 | -90.53151 | 4922 ft | 6 kts | 49° |
| 2026-04-17 03:14 | 14.57124 | -90.53136 | 4922 ft | 8 kts | 16° |
| 2026-04-17 03:15 | 14.57152 | -90.53128 | 4922 ft | 0 kts | 17° |
| 2026-04-17 03:15 | 14.57198 | -90.53113 | 4921 ft | 31 kts | 17° |
| 2026-04-17 03:16 | 14.57648 | -90.52965 | 4929 ft | 101 kts | 17° |
| 2026-04-17 03:16 | 14.58495 | -90.52690 | 4969 ft | 151 kts | 18° |
| 2026-04-17 03:16 | 14.59524 | -90.52372 | 5592 ft | 153 kts | 17° |
| 2026-04-17 03:16 | 14.60593 | -90.52022 | 6064 ft | 175 kts | 18° |
| 2026-04-17 03:17 | 14.61825 | -90.51608 | 6398 ft | 193 kts | 19° |
| 2026-04-17 03:17 | 14.63156 | -90.51163 | 6659 ft | 210 kts | 19° |
| 2026-04-17 03:17 | 14.64574 | -90.50690 | 6915 ft | 227 kts | 18° |
| 2026-04-17 03:17 | 14.66164 | -90.50159 | 7201 ft | 253 kts | 18° |
| 2026-04-17 03:18 | 14.67923 | -90.49646 | 7678 ft | 271 kts | 6° |
| 2026-04-17 03:18 | 14.69810 | -90.49889 | 8436 ft | 280 kts | 339° |
| 2026-04-17 03:18 | 14.71429 | -90.51021 | 9277 ft | 287 kts | 313° |
| 2026-04-17 03:18 | 14.72549 | -90.52745 | 10143 ft | 292 kts | 301° |
| 2026-04-17 03:19 | 14.73537 | -90.54595 | 10846 ft | 300 kts | 300° |
| 2026-04-17 03:19 | 14.74550 | -90.56531 | 11417 ft | 311 kts | 300° |
| 2026-04-17 03:19 | 14.75586 | -90.58520 | 12099 ft | 318 kts | 300° |
| 2026-04-17 03:19 | 14.76402 | -90.60629 | 12762 ft | 327 kts | 282° |
| 2026-04-17 03:20 | 14.76405 | -90.62997 | 13407 ft | 336 kts | 258° |
| 2026-04-17 03:20 | 14.75511 | -90.65238 | 14063 ft | 343 kts | 235° |
| 2026-04-17 03:20 | 14.73841 | -90.66993 | 14641 ft | 346 kts | 212° |
| 2026-04-17 03:20 | 14.71690 | -90.68121 | 14978 ft | 348 kts | 201° |
| 2026-04-17 03:21 | 14.69449 | -90.69063 | 15063 ft | 348 kts | 200° |
| 2026-04-17 03:21 | 14.67201 | -90.69985 | 15084 ft | 347 kts | 200° |
| 2026-04-17 03:21 | 14.64987 | -90.70893 | 15088 ft | 347 kts | 200° |
| 2026-04-17 03:21 | 14.62742 | -90.71811 | 15088 ft | 347 kts | 200° |
| 2026-04-17 03:22 | 14.60501 | -90.72727 | 15084 ft | 347 kts | 200° |
| 2026-04-17 03:22 | 14.58253 | -90.73647 | 15083 ft | 348 kts | 200° |
| 2026-04-17 03:22 | 14.55979 | -90.74484 | 15086 ft | 346 kts | 190° |
| 2026-04-17 03:22 | 14.53612 | -90.74565 | 15086 ft | 340 kts | 167° |
| 2026-04-17 03:23 | 14.51424 | -90.73722 | 15088 ft | 334 kts | 144° |
| 2026-04-17 03:23 | 14.49755 | -90.72108 | 15085 ft | 328 kts | 123° |
| 2026-04-17 03:23 | 14.48473 | -90.70160 | 15085 ft | 328 kts | 120° |
| 2026-04-17 03:23 | 14.47237 | -90.68182 | 15085 ft | 328 kts | 120° |
| 2026-04-17 03:24 | 14.46022 | -90.66224 | 15084 ft | 328 kts | 120° |
| 2026-04-17 03:24 | 14.44792 | -90.64242 | 15087 ft | 328 kts | 120° |
| 2026-04-17 03:24 | 14.43563 | -90.62259 | 15087 ft | 328 kts | 120° |
| 2026-04-17 03:24 | 14.42375 | -90.60255 | 15087 ft | 327 kts | 113° |
| 2026-04-17 03:25 | 14.41808 | -90.58020 | 15088 ft | 322 kts | 90° |
| 2026-04-17 03:25 | 14.42154 | -90.55770 | 15088 ft | 318 kts | 67° |
| 2026-04-17 03:25 | 14.43350 | -90.53871 | 15089 ft | 318 kts | 44° |
| 2026-04-17 03:25 | 14.45196 | -90.52636 | 15091 ft | 320 kts | 21° |
| 2026-04-17 03:26 | 14.47340 | -90.52125 | 15092 ft | 322 kts | 11° |
| 2026-04-17 03:26 | 14.49563 | -90.51778 | 15092 ft | 324 kts | 10° |
| 2026-04-17 03:26 | 14.51792 | -90.51444 | 15092 ft | 324 kts | 10° |
| 2026-04-17 03:26 | 14.54022 | -90.51111 | 15092 ft | 324 kts | 10° |
| 2026-04-17 03:27 | 14.56250 | -90.50781 | 15093 ft | 324 kts | 10° |
| 2026-04-17 03:27 | 14.58452 | -90.50333 | 15089 ft | 322 kts | 20° |
| 2026-04-17 03:27 | 14.60468 | -90.49342 | 15258 ft | 323 kts | 36° |
| 2026-04-17 03:27 | 14.62155 | -90.47819 | 15932 ft | 324 kts | 49° |
| 2026-04-17 03:28 | 14.63429 | -90.45894 | 16575 ft | 327 kts | 63° |
| 2026-04-17 03:28 | 14.64174 | -90.43702 | 17188 ft | 331 kts | 78° |
| 2026-04-17 03:28 | 14.64493 | -90.41334 | 17808 ft | 335 kts | 81° |
| 2026-04-17 03:28 | 14.64792 | -90.38940 | 18437 ft | 338 kts | 81° |
| 2026-04-17 03:29 | 14.65094 | -90.36525 | 18963 ft | 341 kts | 81° |
| 2026-04-17 03:29 | 14.65184 | -90.34063 | 19466 ft | 346 kts | 90° |
| 2026-04-17 03:29 | 14.64889 | -90.31577 | 19976 ft | 352 kts | 99° |
| 2026-04-17 03:29 | 14.64198 | -90.29130 | 20466 ft | 358 kts | 108° |
| 2026-04-17 03:30 | 14.63120 | -90.26798 | 20957 ft | 364 kts | 117° |
| 2026-04-17 03:30 | 14.61691 | -90.24617 | 21472 ft | 369 kts | 122° |
| 2026-04-17 03:30 | 14.60194 | -90.22453 | 21983 ft | 372 kts | 122° |
| 2026-04-17 03:30 | 14.58709 | -90.20301 | 22466 ft | 375 kts | 122° |
| 2026-04-17 03:31 | 14.57195 | -90.18099 | 22963 ft | 378 kts | 122° |
| 2026-04-17 03:31 | 14.55669 | -90.15877 | 23450 ft | 381 kts | 122° |
| 2026-04-17 03:31 | 14.54134 | -90.13638 | 23880 ft | 384 kts | 122° |
| 2026-04-17 03:31 | 14.52587 | -90.11382 | 24286 ft | 386 kts | 122° |
| 2026-04-17 03:32 | 14.51126 | -90.09055 | 24693 ft | 387 kts | 116° |
| 2026-04-17 03:32 | 14.50025 | -90.06527 | 25085 ft | 386 kts | 107° |
| 2026-04-17 03:32 | 14.49329 | -90.03858 | 25470 ft | 386 kts | 97° |
| 2026-04-17 03:32 | 14.48903 | -90.01115 | 25870 ft | 388 kts | 96° |
| 2026-04-17 03:33 | 14.48481 | -89.98396 | 26236 ft | 391 kts | 97° |
| 2026-04-17 03:33 | 14.48044 | -89.95620 | 26621 ft | 393 kts | 97° |
| 2026-04-17 03:33 | 14.47595 | -89.92828 | 27009 ft | 396 kts | 97° |
| 2026-04-17 03:33 | 14.47141 | -89.90015 | 27390 ft | 399 kts | 97° |
| 2026-04-17 03:34 | 14.46686 | -89.87186 | 27772 ft | 401 kts | 97° |
| 2026-04-17 03:34 | 14.46228 | -89.84337 | 28147 ft | 404 kts | 97° |
| 2026-04-17 03:34 | 14.45769 | -89.81470 | 28519 ft | 406 kts | 97° |
| 2026-04-17 03:34 | 14.45307 | -89.78583 | 28881 ft | 409 kts | 97° |
| 2026-04-17 03:35 | 14.44849 | -89.75717 | 29235 ft | 412 kts | 97° |
| 2026-04-17 03:35 | 14.44385 | -89.72791 | 29599 ft | 414 kts | 97° |
| 2026-04-17 03:35 | 14.43917 | -89.69851 | 29950 ft | 417 kts | 97° |
| 2026-04-17 03:35 | 14.43444 | -89.66891 | 30054 ft | 419 kts | 97° |
| 2026-04-17 03:36 | 14.42014 | -89.58008 | 30071 ft | 418 kts | 97° |
| 2026-04-17 03:37 | 14.41062 | -89.52093 | 30051 ft | 418 kts | 97° |
| 2026-04-17 03:37 | 14.40110 | -89.46221 | 30059 ft | 418 kts | 97° |
| 2026-04-17 03:38 | 14.39150 | -89.40305 | 30055 ft | 418 kts | 97° |
| 2026-04-17 03:38 | 14.38194 | -89.34385 | 30045 ft | 418 kts | 97° |
| 2026-04-17 03:39 | 14.37241 | -89.28463 | 30051 ft | 418 kts | 97° |
| 2026-04-17 03:39 | 14.36283 | -89.22582 | 30038 ft | 419 kts | 97° |
| 2026-04-17 03:40 | 14.35314 | -89.16639 | 30018 ft | 421 kts | 97° |
| 2026-04-17 03:40 | 14.34337 | -89.10634 | 30018 ft | 433 kts | 97° |
| 2026-04-17 03:40 | 14.33835 | -89.07533 | 30007 ft | 444 kts | 97° |
| 2026-04-17 03:41 | 14.33320 | -89.04361 | 30010 ft | 454 kts | 97° |
| 2026-04-17 03:41 | 14.32251 | -88.97868 | 30010 ft | 471 kts | 97° |
| 2026-04-17 03:42 | 14.31144 | -88.91134 | 29998 ft | 479 kts | 97° |
| 2026-04-17 03:42 | 14.30033 | -88.84357 | 29997 ft | 479 kts | 97° |
| 2026-04-17 03:43 | 14.28914 | -88.77579 | 30013 ft | 480 kts | 97° |
| 2026-04-17 03:43 | 14.27794 | -88.70803 | 30012 ft | 479 kts | 97° |
| 2026-04-17 03:44 | 14.26682 | -88.64070 | 30007 ft | 480 kts | 97° |
| 2026-04-17 03:44 | 14.24642 | -88.57519 | 30030 ft | 485 kts | 113° |
| 2026-04-17 03:45 | 14.21745 | -88.51243 | 30026 ft | 485 kts | 113° |
| 2026-04-17 03:45 | 14.18844 | -88.44952 | 30019 ft | 488 kts | 112° |
| 2026-04-17 03:46 | 14.15953 | -88.38666 | 30019 ft | 489 kts | 112° |
| 2026-04-17 03:46 | 14.13055 | -88.32382 | 30011 ft | 474 kts | 112° |
| 2026-04-17 03:46 | 14.11661 | -88.29386 | 30040 ft | 454 kts | 112° |
| 2026-04-17 03:47 | 14.10324 | -88.26510 | 30038 ft | 438 kts | 112° |
| 2026-04-17 03:47 | 14.07737 | -88.20891 | 29584 ft | 434 kts | 112° |
| 2026-04-17 03:47 | 14.06454 | -88.18091 | 28986 ft | 430 kts | 112° |
| 2026-04-17 03:48 | 14.05196 | -88.15355 | 28494 ft | 426 kts | 112° |
| 2026-04-17 03:48 | 14.03931 | -88.12615 | 27986 ft | 422 kts | 112° |
| 2026-04-17 03:48 | 14.02676 | -88.09904 | 27492 ft | 417 kts | 112° |
| 2026-04-17 03:48 | 14.01431 | -88.07225 | 27013 ft | 413 kts | 112° |
| 2026-04-17 03:49 | 14.00199 | -88.04573 | 26529 ft | 408 kts | 112° |
| 2026-04-17 03:49 | 13.98982 | -88.01954 | 26065 ft | 403 kts | 112° |
| 2026-04-17 03:49 | 13.97779 | -87.99361 | 25599 ft | 400 kts | 112° |
| 2026-04-17 03:49 | 13.96601 | -87.96818 | 25133 ft | 397 kts | 112° |
| 2026-04-17 03:50 | 13.95419 | -87.94260 | 24638 ft | 394 kts | 112° |
| 2026-04-17 03:50 | 13.94247 | -87.91725 | 24159 ft | 391 kts | 113° |
| 2026-04-17 03:50 | 13.93079 | -87.89200 | 23647 ft | 389 kts | 113° |
| 2026-04-17 03:50 | 13.91920 | -87.86694 | 23087 ft | 386 kts | 113° |
| 2026-04-17 03:51 | 13.90768 | -87.84210 | 22567 ft | 383 kts | 113° |
| 2026-04-17 03:51 | 13.89626 | -87.81749 | 22069 ft | 380 kts | 113° |
| 2026-04-17 03:51 | 13.88505 | -87.79338 | 21579 ft | 377 kts | 113° |
| 2026-04-17 03:51 | 13.87592 | -87.76831 | 21104 ft | 372 kts | 101° |
| 2026-04-17 03:52 | 13.87255 | -87.74220 | 20625 ft | 367 kts | 89° |
| 2026-04-17 03:52 | 13.87490 | -87.71627 | 20155 ft | 363 kts | 77° |
| 2026-04-17 03:52 | 13.88212 | -87.69153 | 19711 ft | 360 kts | 71° |
| 2026-04-17 03:52 | 13.89003 | -87.66710 | 19245 ft | 359 kts | 71° |
| 2026-04-17 03:53 | 13.89782 | -87.64283 | 18792 ft | 357 kts | 71° |
| 2026-04-17 03:53 | 13.90554 | -87.61859 | 18336 ft | 355 kts | 71° |
| 2026-04-17 03:53 | 13.91318 | -87.59448 | 17835 ft | 353 kts | 71° |
| 2026-04-17 03:53 | 13.92069 | -87.57077 | 17357 ft | 352 kts | 71° |
| 2026-04-17 03:54 | 13.92827 | -87.54682 | 16883 ft | 351 kts | 71° |
| 2026-04-17 03:54 | 13.93580 | -87.52305 | 16442 ft | 348 kts | 71° |
| 2026-04-17 03:54 | 13.94326 | -87.49948 | 16018 ft | 346 kts | 71° |
| 2026-04-17 03:54 | 13.95068 | -87.47602 | 15595 ft | 343 kts | 71° |
| 2026-04-17 03:55 | 13.95804 | -87.45277 | 15183 ft | 341 kts | 71° |
| 2026-04-17 03:55 | 13.96539 | -87.42966 | 14759 ft | 339 kts | 71° |
| 2026-04-17 03:55 | 13.97273 | -87.40663 | 14340 ft | 338 kts | 71° |
| 2026-04-17 03:55 | 13.97999 | -87.38371 | 13919 ft | 336 kts | 71° |
| 2026-04-17 03:56 | 13.98714 | -87.36116 | 13466 ft | 335 kts | 71° |
| 2026-04-17 03:56 | 13.99430 | -87.33848 | 13040 ft | 332 kts | 71° |
| 2026-04-17 03:56 | 14.00136 | -87.31607 | 12727 ft | 325 kts | 71° |
| 2026-04-17 03:56 | 14.00827 | -87.29421 | 12467 ft | 317 kts | 71° |
| 2026-04-17 03:57 | 14.01504 | -87.27286 | 12241 ft | 310 kts | 71° |
| 2026-04-17 03:57 | 14.02167 | -87.25193 | 11993 ft | 304 kts | 71° |
| 2026-04-17 03:57 | 14.02989 | -87.23218 | 11748 ft | 298 kts | 58° |
| 2026-04-17 03:57 | 14.04238 | -87.21551 | 11515 ft | 293 kts | 44° |
| 2026-04-17 03:58 | 14.05700 | -87.20100 | 11276 ft | 291 kts | 43° |
| 2026-04-17 03:58 | 14.07264 | -87.18836 | 11033 ft | 289 kts | 31° |
| 2026-04-17 03:58 | 14.09062 | -87.17952 | 10751 ft | 286 kts | 18° |
| 2026-04-17 03:58 | 14.10999 | -87.17527 | 10372 ft | 286 kts | 5° |
| 2026-04-17 03:59 | 14.12986 | -87.17605 | 9967 ft | 286 kts | 351° |
| 2026-04-17 03:59 | 14.14893 | -87.18181 | 9532 ft | 288 kts | 337° |
| 2026-04-17 03:59 | 14.16627 | -87.19210 | 9105 ft | 289 kts | 324° |
| 2026-04-17 03:59 | 14.18085 | -87.20643 | 8689 ft | 291 kts | 310° |
| 2026-04-17 04:00 | 14.19143 | -87.22373 | 8596 ft | 280 kts | 297° |
| 2026-04-17 04:00 | 14.19774 | -87.24233 | 8496 ft | 271 kts | 283° |
| 2026-04-17 04:00 | 14.19972 | -87.26097 | 8378 ft | 260 kts | 271° |
| 2026-04-17 04:00 | 14.19782 | -87.27907 | 8275 ft | 250 kts | 258° |
| 2026-04-17 04:01 | 14.19254 | -87.29587 | 8161 ft | 245 kts | 246° |
| 2026-04-17 04:01 | 14.18415 | -87.31101 | 8049 ft | 243 kts | 234° |
| 2026-04-17 04:01 | 14.17298 | -87.32406 | 7944 ft | 243 kts | 221° |
| 2026-04-17 04:01 | 14.15879 | -87.33358 | 7625 ft | 247 kts | 201° |
| 2026-04-17 04:02 | 14.14222 | -87.33738 | 7400 ft | 239 kts | 181° |
| 2026-04-17 04:02 | 14.12608 | -87.33574 | 7074 ft | 231 kts | 163° |
| 2026-04-17 04:02 | 14.11139 | -87.32958 | 6689 ft | 227 kts | 153° |
| 2026-04-17 04:02 | 14.09718 | -87.32284 | 6331 ft | 222 kts | 152° |
| 2026-04-17 04:03 | 14.08482 | -87.31432 | 5923 ft | 212 kts | 135° |
| 2026-04-17 04:03 | 14.07575 | -87.30288 | 5568 ft | 201 kts | 121° |
| 2026-04-17 04:03 | 14.06839 | -87.29114 | 5253 ft | 196 kts | 122° |
| 2026-04-17 04:03 | 14.06101 | -87.27952 | 4951 ft | 191 kts | 122° |
| 2026-04-17 04:04 | 14.05394 | -87.26846 | 4707 ft | 175 kts | 121° |
| 2026-04-17 04:04 | 14.04756 | -87.25847 | 4413 ft | 160 kts | 122° |
| 2026-04-17 04:04 | 14.04165 | -87.24910 | 4199 ft | 151 kts | 118° |
| 2026-04-17 04:04 | 14.03820 | -87.23920 | 4004 ft | 145 kts | 90° |
| 2026-04-17 04:05 | 14.04066 | -87.22947 | 3808 ft | 142 kts | 56° |
| 2026-04-17 04:05 | 14.04724 | -87.22225 | 3514 ft | 137 kts | 22° |
| 2026-04-17 04:05 | 14.05603 | -87.21896 | 3308 ft | 132 kts | 17° |
| 2026-04-17 04:05 | 14.06391 | -87.21589 | 3255 ft | 111 kts | 23° |
| 2026-04-17 04:06 | 14.06790 | -87.21448 | 3245 ft | 10 kts | 20° |
| 2026-04-17 04:06 | 14.06801 | -87.21445 | 3245 ft | 8 kts | 17° |
| 2026-04-17 04:06 | 14.06810 | -87.21436 | 3244 ft | 0 kts | 52° |